Time;durP1;ratioP1;P1;durP2;ratioP2;P2;SDS_P1;SDS_P2;PMS_P1;PMS_P2;Temp;Humidity;BMP_temperature;BMP_pressure;BME280_temperature;BME280_humidity;BME280_pressure;Samples;Min_cycle;Max_cycle;Signal;HPM_P1;HPM_P2
2023/01/15 00:02:11;;;;;;;92.60;28.00;;;;;;;2.74;100.00;100769.52;107469;1259;74647;-65
2023/01/15 00:04:39;;;;;;;85.70;25.60;;;;;;;2.73;100.00;100767.27;107687;1259;61090;-62
2023/01/15 06:31:55;;;;;;;97.90;25.90;;;;;;;-0.84;100.00;100691.25;105473;1285;613139;-64
2023/01/15 06:34:23;;;;;;;102.20;29.40;;;;;;;0.54;100.00;100689.15;107158;1269;63103;-62
2023/01/15 06:36:49;;;;;;;116.30;33.00;;;;;;;0.72;100.00;100690.93;107155;1268;61409;-63
2023/01/15 06:39:16;;;;;;;98.00;31.90;;;;;;;0.92;100.00;100689.62;107138;1268;72389;-62
2023/01/15 06:47:21;;;;;;;90.10;28.80;;;;;;;1.19;100.00;100685.23;107202;1266;61688;-64
2023/01/15 06:49:54;;;;;;;92.30;28.30;;;;;;;1.48;100.00;100686.35;107291;1270;60399;-64
2023/01/15 06:52:22;;;;;;;83.20;27.70;;;;;;;1.57;100.00;100689.55;107288;1266;72265;-63
2023/01/15 06:54:48;;;;;;;90.40;32.50;;;;;;;1.55;100.00;100685.75;107302;1266;71289;-63
2023/01/15 06:57:15;;;;;;;77.60;25.90;;;;;;;1.49;100.00;100679.11;107259;1265;71644;-64
2023/01/15 06:59:42;;;;;;;67.00;22.50;;;;;;;1.56;100.00;100677.95;107311;1266;61239;-61
2023/01/15 07:02:12;;;;;;;71.20;25.20;;;;;;;1.53;100.00;100677.41;107241;1265;60533;-62
2023/01/15 07:04:39;;;;;;;63.00;23.10;;;;;;;1.77;100.00;100677.08;107260;1266;71818;-63
2023/01/15 07:07:05;;;;;;;78.20;26.30;;;;;;;1.81;100.00;100675.38;107218;1266;69537;-64
2023/01/15 07:09:32;;;;;;;74.70;26.00;;;;;;;1.96;100.00;100677.91;107360;1263;72791;-64
2023/01/15 07:11:59;;;;;;;74.40;26.00;;;;;;;2.17;100.00;100675.63;107395;1263;62083;-63
2023/01/15 07:14:27;;;;;;;71.20;24.40;;;;;;;2.05;100.00;100673.99;107390;1263;61085;-64
2023/01/15 07:16:54;;;;;;;57.00;20.00;;;;;;;1.97;100.00;100669.60;107395;1263;72883;-65
2023/01/15 07:19:21;;;;;;;47.90;17.90;;;;;;;2.07;100.00;100668.29;107419;1263;69652;-64
2023/01/15 07:21:47;;;;;;;69.30;22.30;;;;;;;1.81;100.00;100673.65;107445;1264;73589;-62
2023/01/15 07:24:15;;;;;;;68.10;22.80;;;;;;;1.84;100.00;100675.07;107418;1263;62323;-63
2023/01/15 07:26:42;;;;;;;110.20;36.40;;;;;;;1.93;100.00;100673.22;107450;1263;61417;-64
2023/01/15 07:29:09;;;;;;;102.60;34.00;;;;;;;2.13;100.00;100679.23;107395;1263;73205;-61
2023/01/15 07:31:38;;;;;;;110.20;36.10;;;;;;;2.21;100.00;100676.34;107445;1263;69960;-63
2023/01/15 07:34:05;;;;;;;69.10;22.80;;;;;;;2.19;100.00;100673.39;107381;1263;73787;-63
2023/01/15 07:36:32;;;;;;;95.20;30.60;;;;;;;2.19;100.00;100673.90;107386;1262;62016;-63
2023/01/15 07:38:58;;;;;;;112.70;39.90;;;;;;;2.19;100.00;100671.48;107443;1262;61513;-63
2023/01/15 07:50:09;;;;;;;59.50;20.80;;;;;;;2.40;100.00;100677.83;107694;1259;62438;-65
2023/01/15 07:52:36;;;;;;;47.50;18.70;;;;;;;2.29;100.00;100677.77;107730;1260;60364;-64
2023/01/15 07:55:03;;;;;;;72.40;28.80;;;;;;;2.29;100.00;100681.94;107713;1259;73894;-63
2023/01/15 07:57:32;;;;;;;59.90;21.30;;;;;;;2.50;100.00;100681.34;107729;1260;68601;-60
2023/01/15 07:59:58;;;;;;;72.20;28.40;;;;;;;2.44;100.00;100678.02;107734;1260;71912;-62
2023/01/15 08:02:26;;;;;;;59.80;26.00;;;;;;;2.54;100.00;100676.86;107674;1259;63234;-59
2023/01/15 08:04:53;;;;;;;47.50;18.80;;;;;;;2.50;100.00;100675.45;107779;1259;60032;-58
2023/01/15 08:07:19;;;;;;;56.00;22.80;;;;;;;2.41;100.00;100673.84;107779;1260;74463;-64
2023/01/15 08:09:46;;;;;;;47.70;19.00;;;;;;;2.70;100.00;100669.83;107730;1260;69836;-60
2023/01/15 08:15:13;;;;;;;48.70;19.20;;;;;;;2.65;100.00;100678.80;107697;1260;61729;-61
2023/01/15 08:17:45;;;;;;;49.60;21.90;;;;;;;2.79;100.00;100668.29;107687;1259;59716;-65
2023/01/15 08:20:22;;;;;;;65.40;25.90;;;;;;;2.85;100.00;100671.42;107720;1260;74098;-65
2023/01/15 08:22:48;;;;;;;50.70;21.80;;;;;;;2.85;100.00;100670.73;107695;1259;70965;-65
2023/01/15 08:25:20;;;;;;;53.10;20.00;;;;;;;2.80;100.00;100670.55;107709;1260;72659;-64
2023/01/15 08:27:47;;;;;;;42.10;18.20;;;;;;;2.98;100.00;100671.12;107775;1260;59900;-63
2023/01/15 08:30:16;;;;;;;46.30;18.20;;;;;;;3.03;100.00;100676.69;107698;1259;60101;-63
2023/01/15 08:32:43;;;;;;;46.10;19.30;;;;;;;2.83;100.00;100679.05;107516;1260;72965;-62
2023/01/15 08:35:11;;;;;;;46.60;19.40;;;;;;;2.98;100.00;100677.89;107681;1260;69479;-62
2023/01/15 08:37:40;;;;;;;31.60;12.90;;;;;;;2.90;100.00;100678.90;107694;1259;71846;-62
2023/01/15 08:40:08;;;;;;;42.40;18.10;;;;;;;2.81;100.00;100674.20;107705;1259;60638;-64
2023/01/15 08:42:35;;;;;;;38.80;15.90;;;;;;;2.95;100.00;100673.37;107670;1258;60349;-63
2023/01/15 08:45:02;;;;;;;39.50;18.30;;;;;;;2.66;100.00;100671.89;107688;1259;72926;-64
2023/01/15 08:47:31;;;;;;;40.80;18.00;;;;;;;2.78;100.00;100668.10;107670;1260;69525;-65
2023/01/15 08:50:01;;;;;;;41.20;18.90;;;;;;;2.75;100.00;100666.02;107667;1260;71641;-64
2023/01/15 08:52:28;;;;;;;42.10;19.80;;;;;;;2.81;100.00;100663.61;107618;1260;61099;-63
2023/01/15 08:54:54;;;;;;;40.00;16.50;;;;;;;2.78;100.00;100656.49;107650;1258;60774;-64
2023/01/15 08:57:23;;;;;;;34.60;14.00;;;;;;;2.62;100.00;100653.67;107611;1260;74286;-64
2023/01/15 08:59:50;;;;;;;41.60;17.40;;;;;;;2.55;100.00;100648.43;107665;1262;71581;-64
2023/01/15 09:02:17;;;;;;;44.60;17.90;;;;;;;2.77;100.00;100648.86;107630;1258;73713;-61
2023/01/15 09:04:44;;;;;;;40.40;18.20;;;;;;;2.66;100.00;100648.30;107621;1258;61575;-64
2023/01/15 09:07:11;;;;;;;48.50;19.90;;;;;;;2.81;100.00;100644.89;107643;1260;61564;-65
2023/01/15 09:09:38;;;;;;;43.90;20.10;;;;;;;2.74;100.00;100639.32;107645;1260;74263;-65
2023/01/15 09:12:05;;;;;;;38.90;17.30;;;;;;;2.68;100.00;100634.27;107680;1259;71253;-65
2023/01/15 09:14:32;;;;;;;45.40;19.80;;;;;;;2.63;100.00;100634.08;107660;1259;72663;-65
2023/01/15 09:17:18;;;;;;;47.20;20.60;;;;;;;2.52;100.00;100631.96;107956;1256;62178;-65
2023/01/15 09:19:45;;;;;;;47.30;19.30;;;;;;;2.90;100.00;100631.04;107944;1255;60563;-65
2023/01/15 09:22:12;;;;;;;46.10;20.40;;;;;;;2.70;100.00;100629.09;107950;1256;72269;-66
2023/01/15 09:24:38;;;;;;;50.50;22.00;;;;;;;2.84;100.00;100624.43;108034;1255;69383;-64
2023/01/15 09:27:05;;;;;;;43.40;18.40;;;;;;;2.78;100.00;100619.55;108058;1254;73761;-63
2023/01/15 09:29:32;;;;;;;41.80;18.50;;;;;;;2.65;100.00;100619.17;108136;1254;61564;-64
2023/01/15 09:32:01;;;;;;;57.30;22.90;;;;;;;2.76;100.00;100616.60;108113;1254;61223;-62
2023/01/15 09:34:28;;;;;;;52.30;22.60;;;;;;;2.97;100.00;100609.89;108044;1254;73981;-65
2023/01/15 09:36:55;;;;;;;53.40;21.80;;;;;;;2.78;100.00;100604.64;108087;1254;71768;-65
2023/01/15 09:39:22;;;;;;;54.40;20.60;;;;;;;2.61;100.00;100603.89;108080;1254;73862;-65
2023/01/15 09:42:09;;;;;;;52.40;18.60;;;;;;;2.65;100.00;100595.23;108016;1255;62297;-64
2023/01/15 09:45:00;;;;;;;55.00;21.90;;;;;;;2.91;100.00;100601.38;108039;1254;61390;-63
2023/01/15 09:47:30;;;;;;;50.60;20.60;;;;;;;2.88;100.00;100608.31;108024;1254;73157;-64
2023/01/15 09:50:03;;;;;;;55.30;23.60;;;;;;;2.87;100.00;100603.11;108098;1254;71167;-63
2023/01/15 09:52:49;;;;;;;57.40;23.50;;;;;;;2.92;100.00;100601.38;107939;1254;73883;-64
2023/01/15 09:55:24;;;;;;;40.80;15.10;;;;;;;3.12;100.00;100595.86;108083;1255;61974;-64
2023/01/15 09:57:53;;;;;;;70.70;26.80;;;;;;;3.16;100.00;100592.90;108043;1254;60140;-63
2023/01/15 16:24:38;;;;;;;79.10;29.30;;;;;;;0.12;100.00;100348.96;105608;1282;612645;-64
2023/01/15 16:27:07;;;;;;;68.30;19.20;;;;;;;0.93;100.00;100351.97;107070;1267;121493;-65
2023/01/15 16:29:34;;;;;;;42.20;15.90;;;;;;;1.02;100.00;100346.14;107235;1267;61958;-64
2023/01/15 16:32:09;;;;;;;53.60;18.90;;;;;;;1.09;100.00;100344.79;107246;1267;74142;-63
2023/01/15 16:34:35;;;;;;;77.30;29.60;;;;;;;1.27;100.00;100341.95;107963;1257;72407;-63
2023/01/15 16:37:02;;;;;;;44.10;16.50;;;;;;;1.73;100.00;100343.30;107874;1262;72673;-64
2023/01/15 16:39:39;;;;;;;60.40;21.70;;;;;;;1.85;100.00;100344.89;108079;1257;59733;-65
2023/01/15 16:42:25;;;;;;;67.80;27.50;;;;;;;1.86;100.00;100334.33;108072;1258;62408;-65
2023/01/15 16:45:16;;;;;;;65.60;26.50;;;;;;;1.83;100.00;100325.48;107935;1257;74104;-65
2023/01/15 16:47:43;;;;;;;;;;;;;;;1.95;100.00;100326.55;107773;1257;69953;-61
2023/01/15 16:50:22;;;;;;;63.40;25.60;;;;;;;1.79;100.00;100319.77;107750;1257;74977;-65
2023/01/15 16:52:54;;;;;;;73.40;25.60;;;;;;;1.60;100.00;100327.35;107964;1257;62034;-64
2023/01/15 16:55:33;;;;;;;57.50;19.70;;;;;;;1.59;100.00;100323.19;107883;1256;61174;-64
2023/01/15 16:58:13;;;;;;;72.40;24.00;;;;;;;1.47;100.00;100316.23;107974;1257;72736;-63
2023/01/15 17:00:42;;;;;;;56.90;20.70;;;;;;;1.61;100.00;100314.71;107968;1256;72606;-65
2023/01/15 17:03:25;;;;;;;69.60;19.80;;;;;;;1.63;100.00;100316.27;108015;1256;75076;-64
2023/01/15 17:06:00;;;;;;;66.60;25.60;;;;;;;1.69;100.00;100312.66;107868;1257;60290;-61
2023/01/15 17:08:38;;;;;;;80.50;30.10;;;;;;;1.59;100.00;100307.62;107967;1257;61725;-64
2023/01/15 17:11:10;;;;;;;79.10;26.80;;;;;;;1.61;100.00;100308.50;107942;1256;72707;-66
2023/01/15 17:13:37;;;;;;;64.90;18.70;;;;;;;1.69;100.00;100309.20;107633;1255;71203;-65
2023/01/15 17:16:23;;;;;;;71.20;27.60;;;;;;;1.68;100.00;100307.13;107765;1257;75067;-65
2023/01/15 17:18:50;;;;;;;84.50;29.80;;;;;;;1.57;100.00;100305.20;107614;1259;61856;-63
2023/01/15 17:21:21;;;;;;;77.00;26.00;;;;;;;1.54;100.00;100306.73;107640;1257;60919;-63
2023/01/15 17:23:48;;;;;;;56.40;21.70;;;;;;;1.67;100.00;100305.04;107752;1257;75119;-63
2023/01/15 17:26:33;;;;;;;83.90;28.90;;;;;;;1.74;100.00;100301.95;107689;1257;72162;-65
2023/01/15 17:29:00;;;;;;;76.20;29.00;;;;;;;1.68;100.00;100303.66;107666;1257;74979;-65
2023/01/15 17:31:29;;;;;;;58.90;19.90;;;;;;;1.83;100.00;100301.08;107741;1257;60981;-64
2023/01/15 17:33:57;;;;;;;71.00;28.80;;;;;;;1.61;100.00;100299.31;107642;1257;62687;-65
2023/01/15 17:36:24;;;;;;;82.80;31.70;;;;;;;1.64;100.00;100302.08;107691;1257;75321;-64
2023/01/15 17:38:51;;;;;;;77.30;26.60;;;;;;;1.81;100.00;100296.58;107677;1257;71660;-65
2023/01/15 17:41:18;;;;;;;77.10;26.10;;;;;;;1.91;100.00;100285.70;107671;1257;73512;-65
2023/01/15 17:43:45;;;;;;;83.20;27.60;;;;;;;1.91;100.00;100285.86;107658;1257;62133;-64
2023/01/15 17:46:12;;;;;;;58.70;20.50;;;;;;;1.91;100.00;100280.48;107580;1257;61235;-63
2023/01/15 17:48:39;;;;;;;82.40;26.60;;;;;;;1.97;100.00;100275.65;107676;1263;73197;-65
2023/01/15 17:51:10;;;;;;;69.10;21.80;;;;;;;2.06;100.00;100273.57;107709;1262;72280;-61
2023/01/15 17:53:36;;;;;;;88.90;31.30;;;;;;;1.99;100.00;100268.73;107688;1257;74694;-63
2023/01/15 18:05:25;;;;;;;77.90;26.50;;;;;;;2.48;100.00;100261.40;107749;1257;71695;-65
2023/01/15 18:07:52;;;;;;;86.50;26.50;;;;;;;2.35;100.00;100260.20;107374;1262;72627;-63
2023/01/15 18:10:20;;;;;;;78.80;29.30;;;;;;;2.51;100.00;100253.42;107427;1262;62539;-63
2023/01/15 18:12:46;;;;;;;103.30;33.10;;;;;;;2.71;100.00;100255.98;107717;1257;59459;-64
2023/01/15 18:15:14;;;;;;;89.20;33.50;;;;;;;2.50;100.00;100249.43;107630;1257;74061;-65
2023/01/15 18:17:41;;;;;;;85.40;28.50;;;;;;;2.37;100.00;100238.37;107645;1263;72528;-65
2023/01/15 18:20:09;;;;;;;89.30;33.60;;;;;;;2.22;100.00;100235.27;107582;1257;74089;-65
2023/01/15 18:22:36;;;;;;;82.10;28.50;;;;;;;2.30;100.00;100231.45;107867;1263;62223;-63
2023/01/15 18:25:04;;;;;;;89.00;32.10;;;;;;;2.40;100.00;100228.66;107625;1257;62692;-64
2023/01/15 18:27:31;;;;;;;95.60;30.20;;;;;;;2.37;100.00;100227.45;107658;1257;73728;-63
2023/01/15 18:29:58;;;;;;;84.50;29.00;;;;;;;2.18;100.00;100224.71;107634;1258;72719;-61
2023/01/15 18:32:29;;;;;;;87.10;29.00;;;;;;;2.18;100.00;100218.81;107710;1258;72120;-64
2023/01/15 18:34:56;;;;;;;86.20;30.50;;;;;;;2.26;100.00;100216.05;107590;1258;60979;-62
2023/01/15 18:37:23;;;;;;;75.10;23.10;;;;;;;2.20;100.00;100213.63;107579;1263;59548;-62
2023/01/15 18:39:50;;;;;;;88.30;31.10;;;;;;;2.35;100.00;100214.63;107669;1257;73768;-60
2023/01/15 18:47:49;;;;;;;68.00;23.60;;;;;;;2.69;100.00;100205.17;107580;1259;60955;-64
2023/01/15 18:50:16;;;;;;;92.10;33.20;;;;;;;2.57;100.00;100201.75;107590;1257;60637;-64
2023/01/15 18:52:49;;;;;;;86.90;30.10;;;;;;;2.46;100.00;100205.41;107617;1257;75514;-64
2023/01/15 18:55:26;;;;;;;91.80;25.90;;;;;;;2.43;100.00;100205.44;107793;1257;72199;-64
2023/01/15 18:57:54;;;;;;;72.00;25.20;;;;;;;2.49;100.00;100199.52;107758;1258;73555;-62
2023/01/15 19:00:22;;;;;;;74.70;26.30;;;;;;;2.49;100.00;100203.34;107600;1257;60971;-64
2023/01/15 19:02:50;;;;;;;78.30;27.40;;;;;;;2.62;100.00;100193.25;107736;1258;62306;-64
2023/01/15 19:05:20;;;;;;;72.30;25.80;;;;;;;2.59;100.00;100196.71;107850;1258;74444;-64
2023/01/15 19:07:47;;;;;;;77.90;32.80;;;;;;;2.57;100.00;100199.16;107656;1257;70035;-63
2023/01/15 19:10:15;;;;;;;71.80;25.30;;;;;;;2.55;100.00;100191.54;107705;1258;73603;-64
2023/01/15 19:12:43;;;;;;;93.10;33.00;;;;;;;2.47;100.00;100194.15;107819;1257;62354;-63
2023/01/15 19:20:47;;;;;;;67.10;25.90;;;;;;;2.37;100.00;100185.00;107630;1258;72113;-64
2023/01/15 19:23:14;;;;;;;68.10;24.80;;;;;;;2.49;100.00;100187.91;107718;1257;72873;-63
2023/01/15 19:25:43;;;;;;;70.30;24.70;;;;;;;2.61;100.00;100186.13;107712;1257;59923;-64
2023/01/15 19:28:15;;;;;;;78.20;24.50;;;;;;;2.52;100.00;100180.80;107728;1258;61916;-64
2023/01/15 19:31:34;;;;;;;52.00;18.80;;;;;;;2.86;100.00;100180.49;107653;1257;73429;-63
2023/01/15 19:34:17;;;;;;;72.60;25.90;;;;;;;2.48;100.00;100186.00;107671;1257;71955;-63
2023/01/15 19:36:59;;;;;;;78.50;26.30;;;;;;;2.83;100.00;100175.98;107623;1258;74011;-64
2023/01/15 19:39:26;;;;;;;78.60;28.10;;;;;;;3.05;100.00;100179.85;107687;1257;62868;-62
2023/01/15 19:50:25;;;;;;;75.90;30.30;;;;;;;2.76;100.00;100171.34;107655;1257;72396;-64
2023/01/15 19:52:53;;;;;;;97.10;32.50;;;;;;;3.03;100.00;100175.71;107632;1257;63403;-65
2023/01/15 19:55:21;;;;;;;88.30;32.00;;;;;;;3.30;100.00;100171.21;107808;1258;62567;-63
2023/01/15 19:57:54;;;;;;;67.90;24.40;;;;;;;3.25;100.00;100175.23;107641;1257;72706;-64
2023/01/15 20:00:22;;;;;;;82.60;33.40;;;;;;;2.74;100.00;100176.72;107602;1257;72407;-65
2023/01/15 20:02:49;;;;;;;75.90;25.10;;;;;;;2.89;100.00;100168.68;107611;1257;73314;-64
2023/01/15 20:05:16;;;;;;;90.90;32.40;;;;;;;2.86;100.00;100172.35;107620;1259;61791;-63
2023/01/15 20:07:43;;;;;;;91.40;33.30;;;;;;;3.03;100.00;100171.72;107502;1257;59540;-63
2023/01/15 20:10:16;;;;;;;76.90;29.80;;;;;;;3.04;100.00;100166.86;107626;1263;74508;-64
2023/01/15 20:15:29;;;;;;;82.30;31.20;;;;;;;3.14;100.00;100159.87;107802;1257;74607;-64
2023/01/15 20:17:56;;;;;;;96.50;33.00;;;;;;;3.19;100.00;100163.66;107686;1257;60316;-63
2023/01/15 20:20:24;;;;;;;100.90;33.90;;;;;;;3.29;100.00;100156.65;107654;1257;60002;-67
2023/01/15 20:22:51;;;;;;;84.30;27.80;;;;;;;3.41;100.00;100153.43;107621;1258;71901;-63
2023/01/15 20:25:18;;;;;;;85.80;27.90;;;;;;;3.43;100.00;100157.58;107840;1257;71074;-64
2023/01/15 20:27:45;;;;;;;70.70;28.10;;;;;;;3.50;100.00;100147.98;107792;1257;74375;-64
2023/01/15 20:30:13;;;;;;;88.10;31.70;;;;;;;3.27;100.00;100144.52;107754;1257;63396;-63
2023/01/15 20:32:42;;;;;;;68.60;24.80;;;;;;;3.16;100.00;100149.61;107859;1258;60669;-64
2023/01/15 20:35:18;;;;;;;53.40;21.10;;;;;;;3.05;100.00;100141.71;107580;1257;74673;-67
2023/01/15 20:37:48;;;;;;;63.50;21.00;;;;;;;2.95;100.00;100137.10;107594;1257;72347;-61
2023/01/15 20:40:17;;;;;;;66.30;22.50;;;;;;;2.92;100.00;100144.05;107772;1258;74227;-65
2023/01/15 20:45:29;;;;;;;64.50;24.40;;;;;;;2.95;100.00;100140.20;107556;1257;62052;-65
2023/01/15 20:50:42;;;;;;;65.10;24.00;;;;;;;3.05;100.00;100145.00;107818;1257;72676;-64
2023/01/15 20:53:09;;;;;;;44.40;15.50;;;;;;;3.18;100.00;100150.98;107584;1257;74898;-63
2023/01/15 20:55:38;;;;;;;56.30;22.50;;;;;;;3.11;100.00;100147.40;107628;1257;60867;-64
2023/01/15 20:58:23;;;;;;;67.70;25.10;;;;;;;3.23;100.00;100148.19;107811;1257;60502;-62
2023/01/15 21:00:51;;;;;;;74.90;25.90;;;;;;;3.44;100.00;100149.95;107681;1257;73990;-64
2023/01/15 21:03:19;;;;;;;72.60;26.00;;;;;;;3.29;100.00;100148.31;107665;1257;70935;-62
2023/01/15 21:05:47;;;;;;;74.50;25.30;;;;;;;3.36;100.00;100152.27;107703;1257;75093;-62
2023/01/15 21:08:13;;;;;;;68.10;25.00;;;;;;;3.26;100.00;100154.75;107666;1257;62054;-61
2023/01/15 21:10:41;;;;;;;50.60;17.10;;;;;;;3.21;100.00;100152.38;107725;1257;62012;-64
2023/01/15 21:13:09;;;;;;;69.00;25.70;;;;;;;3.27;100.00;100154.23;107889;1257;74845;-62
2023/01/15 21:15:36;;;;;;;55.20;23.10;;;;;;;3.33;100.00;100153.48;107614;1257;72223;-62
2023/01/15 21:18:04;;;;;;;76.90;26.90;;;;;;;3.37;100.00;100157.11;107779;1257;72666;-63
2023/01/15 21:20:31;;;;;;;59.00;21.10;;;;;;;3.59;100.00;100157.98;107794;1257;60731;-64
2023/01/15 21:23:02;;;;;;;63.50;22.90;;;;;;;3.40;100.00;100157.26;107720;1257;62472;-64
2023/01/15 21:25:32;;;;;;;73.50;26.70;;;;;;;3.40;100.00;100153.97;107618;1257;72839;-63
2023/01/15 21:27:58;;;;;;;65.00;24.00;;;;;;;3.53;100.00;100155.77;107611;1257;71633;-65
2023/01/15 21:30:25;;;;;;;76.80;27.90;;;;;;;3.31;100.00;100150.39;107609;1257;75254;-64
2023/01/15 21:32:52;;;;;;;68.20;25.90;;;;;;;3.36;100.00;100150.54;107575;1257;63334;-62
2023/01/15 21:35:19;;;;;;;75.00;27.50;;;;;;;3.14;100.00;100148.42;107634;1257;61255;-64
2023/01/15 21:37:46;;;;;;;79.00;27.50;;;;;;;3.13;100.00;100153.63;107620;1257;76243;-62
2023/01/15 21:40:12;;;;;;;66.90;20.70;;;;;;;3.47;100.00;100155.65;107617;1257;72453;-62
2023/01/15 21:45:25;;;;;;;74.30;26.70;;;;;;;3.20;100.00;100150.64;107721;1257;63347;-62
2023/01/15 21:47:52;;;;;;;51.00;18.40;;;;;;;3.18;100.00;100145.45;107669;1257;61179;-62
2023/01/15 21:50:19;;;;;;;74.90;28.40;;;;;;;3.21;100.00;100143.86;107597;1257;73345;-60
2023/01/15 21:52:47;;;;;;;72.60;28.80;;;;;;;3.32;100.00;100143.79;107634;1257;72364;-61
2023/01/15 21:55:14;;;;;;;67.70;24.80;;;;;;;3.34;100.00;100143.24;107608;1257;71869;-60
2023/01/15 21:57:41;;;;;;;91.80;30.90;;;;;;;3.21;100.00;100144.89;107609;1259;61848;-61
2023/01/15 22:00:09;;;;;;;78.50;29.80;;;;;;;3.22;100.00;100132.40;107649;1257;61318;-62
2023/01/15 22:02:36;;;;;;;64.70;25.70;;;;;;;3.07;100.00;100125.39;107811;1257;74961;-63
2023/01/15 22:05:04;;;;;;;52.80;21.90;;;;;;;3.10;100.00;100127.80;107697;1257;72607;-61
2023/01/15 22:07:30;;;;;;;54.40;21.30;;;;;;;3.20;100.00;100132.23;107625;1258;75146;-61
2023/01/15 22:09:57;;;;;;;84.60;32.80;;;;;;;3.42;100.00;100130.67;107607;1258;61089;-62
2023/01/15 22:12:24;;;;;;;78.80;27.10;;;;;;;3.67;100.00;100130.66;107708;1257;62495;-64
2023/01/15 22:14:52;;;;;;;47.80;17.20;;;;;;;3.41;100.00;100135.56;107690;1257;75818;-62
2023/01/15 22:17:19;;;;;;;51.60;19.50;;;;;;;3.39;100.00;100138.71;107690;1257;72267;-62
2023/01/15 22:19:49;;;;;;;63.80;25.40;;;;;;;3.33;100.00;100141.70;107677;1257;73821;-63
2023/01/15 22:22:16;;;;;;;52.30;22.50;;;;;;;3.39;100.00;100145.29;107600;1257;62788;-61
2023/01/15 22:24:43;;;;;;;31.10;12.50;;;;;;;3.34;100.00;100143.07;107690;1257;60337;-62
2023/01/15 22:27:12;;;;;;;47.10;17.00;;;;;;;3.21;100.00;100133.44;107764;1257;75653;-64
2023/01/15 22:29:40;;;;;;;45.70;17.40;;;;;;;3.55;100.00;100128.15;107767;1258;72588;-61
2023/01/15 22:32:08;;;;;;;47.30;19.40;;;;;;;3.39;100.00;100119.78;107630;1257;71714;-62
2023/01/15 22:34:35;;;;;;;41.70;16.30;;;;;;;3.34;100.00;100119.98;107724;1257;61203;-61
2023/01/15 22:37:02;;;;;;;57.90;21.10;;;;;;;3.20;100.00;100117.33;107633;1257;60271;-62
2023/01/15 22:39:29;;;;;;;49.80;20.40;;;;;;;3.41;100.00;100116.47;107629;1257;74699;-62
2023/01/15 22:44:44;;;;;;;46.90;15.90;;;;;;;3.65;100.00;100106.71;107617;1257;75108;-62
2023/01/15 22:47:11;;;;;;;49.00;16.90;;;;;;;3.47;100.00;100104.61;107774;1257;63163;-63
2023/01/15 22:49:38;;;;;;;57.60;22.20;;;;;;;3.54;100.00;100097.95;107851;1257;60599;-62
2023/01/15 22:52:04;;;;;;;39.20;15.00;;;;;;;3.81;100.00;100097.02;107550;1257;74491;-63
2023/01/15 22:54:31;;;;;;;52.30;20.50;;;;;;;3.49;100.00;100087.75;107651;1261;71338;-63
2023/01/15 22:56:58;;;;;;;48.70;20.30;;;;;;;3.63;100.00;100086.08;107739;1257;75152;-62
2023/01/15 22:59:25;;;;;;;43.90;16.20;;;;;;;3.45;100.00;100089.20;107593;1257;63231;-61
2023/01/15 23:01:52;;;;;;;46.60;16.80;;;;;;;3.53;100.00;100092.23;107679;1258;62668;-59
2023/01/15 23:04:22;;;;;;;48.30;17.50;;;;;;;3.65;100.00;100088.14;107631;1257;76484;-60
2023/01/15 23:06:50;;;;;;;;;;;;;;;3.34;100.00;100090.66;107608;1258;72781;-58
2023/01/15 23:09:18;;;;;;;38.50;13.70;;;;;;;3.30;100.00;100085.84;107646;1257;73730;-57
2023/01/15 23:11:45;;;;;;;29.90;9.60;;;;;;;3.05;100.00;100090.88;107835;1258;63423;-62
2023/01/15 23:14:12;;;;;;;55.80;22.70;;;;;;;2.80;100.00;100088.11;107671;1257;61234;-62
2023/01/15 23:16:39;;;;;;;53.20;20.50;;;;;;;2.95;100.00;100089.91;107673;1257;74599;-60
2023/01/15 23:19:05;;;;;;;58.60;23.60;;;;;;;3.10;100.00;100083.21;107674;1263;69112;-60
2023/01/15 23:21:32;;;;;;;42.10;16.20;;;;;;;3.26;100.00;100088.48;107558;1257;75055;-60
2023/01/15 23:24:00;;;;;;;57.50;21.40;;;;;;;3.32;100.00;100088.77;107686;1258;63102;-62
2023/01/15 23:26:29;;;;;;;52.20;20.10;;;;;;;3.65;100.00;100086.73;107675;1257;61218;-62
2023/01/15 23:28:55;;;;;;;46.70;19.80;;;;;;;3.69;100.00;100082.72;107681;1257;74600;-62
2023/01/15 23:31:22;;;;;;;52.50;19.50;;;;;;;3.58;100.00;100081.25;107631;1257;73148;-60
2023/01/15 23:33:49;;;;;;;42.20;15.70;;;;;;;3.65;100.00;100077.71;107618;1257;73752;-63
2023/01/15 23:36:16;;;;;;;35.30;13.60;;;;;;;3.56;100.00;100075.38;107586;1258;61153;-60
2023/01/15 23:38:45;;;;;;;43.20;18.50;;;;;;;3.75;100.00;100066.67;107678;1257;61172;-63
2023/01/15 23:41:14;;;;;;;40.70;17.40;;;;;;;4.00;100.00;100076.15;107638;1257;76118;-63
2023/01/15 23:46:36;;;;;;;42.60;17.90;;;;;;;3.59;100.00;100065.79;107640;1257;73865;-61
2023/01/15 23:49:07;;;;;;;33.70;14.00;;;;;;;3.81;100.00;100067.84;107724;1257;62030;-62
2023/01/15 23:51:35;;;;;;;36.00;13.80;;;;;;;3.79;100.00;100070.45;107687;1257;60649;-61
2023/01/15 23:54:02;;;;;;;32.90;14.80;;;;;;;3.89;100.00;100070.35;107622;1262;76012;-62
2023/01/15 23:56:29;;;;;;;42.00;16.10;;;;;;;4.31;100.00;100065.01;107765;1257;72388;-62
2023/01/15 23:58:56;;;;;;;29.40;12.50;;;;;;;4.54;100.00;100055.67;107797;1257;75295;-62
